Time;durP1;ratioP1;P1;durP2;ratioP2;P2;SDS_P1;SDS_P2;PMS_P1;PMS_P2;Temp;Humidity;BMP_temperature;BMP_pressure;BME280_temperature;BME280_humidity;BME280_pressure;Samples;Min_cycle;Max_cycle;Signal;HPM_P1;HPM_P2
2023/04/14 00:00:19;;;;;;;0.85;0.75;;;8.20;99.90;;;;;;4405254;32;20061;-76
2023/04/14 00:02:45;;;;;;;2.37;1.23;;;8.30;99.90;;;;;;4405421;32;20070;-76
2023/04/14 00:05:10;;;;;;;0.40;0.40;;;8.30;99.90;;;;;;4404026;32;20082;-76
2023/04/14 00:07:36;;;;;;;0.43;0.43;;;8.40;99.90;;;;;;4404055;32;20125;-76
2023/04/14 00:10:01;;;;;;;0.40;0.40;;;8.50;99.90;;;;;;4404983;32;20089;-76
2023/04/14 00:12:27;;;;;;;0.60;0.60;;;8.50;99.90;;;;;;4405024;32;20545;-76
2023/04/14 00:14:52;;;;;;;2.30;1.00;;;8.40;99.90;;;;;;4404975;32;20062;-76
2023/04/14 00:17:18;;;;;;;0.47;0.47;;;8.40;99.90;;;;;;4402380;32;20070;-76
2023/04/14 00:19:43;;;;;;;0.30;0.30;;;8.50;99.90;;;;;;4405240;32;20416;-76
2023/04/14 00:22:09;;;;;;;0.50;0.50;;;8.50;99.90;;;;;;4404154;32;20065;-76
2023/04/14 00:24:41;;;;;;;1.05;0.80;;;8.50;99.90;;;;;;4404554;32;20074;-76
2023/04/14 00:27:07;;;;;;;0.88;0.88;;;8.50;99.90;;;;;;4406687;32;20085;-75
2023/04/14 00:29:33;;;;;;;0.55;0.55;;;8.60;99.90;;;;;;4403202;32;20105;-76
2023/04/14 00:31:58;;;;;;;0.43;0.43;;;8.70;99.90;;;;;;4402855;32;20066;-76
2023/04/14 00:34:24;;;;;;;1.02;0.93;;;8.60;99.90;;;;;;4407998;32;20066;-75
2023/04/14 00:36:49;;;;;;;0.40;0.40;;;8.70;99.90;;;;;;4404391;32;20529;-76
2023/04/14 00:39:15;;;;;;;0.35;0.35;;;8.60;99.90;;;;;;4407620;32;20443;-76
2023/04/14 00:41:42;;;;;;;0.40;0.40;;;8.50;99.90;;;;;;4404000;32;20078;-74
2023/04/14 00:44:08;;;;;;;0.22;0.22;;;8.40;99.90;;;;;;4403697;32;20157;-76
2023/04/14 00:46:34;;;;;;;1.50;0.65;;;8.40;99.90;;;;;;4402684;32;20608;-77
2023/04/14 00:49:00;;;;;;;2.12;0.98;;;8.40;99.90;;;;;;4406417;32;20100;-75
2023/04/14 00:51:26;;;;;;;0.52;0.52;;;8.40;99.90;;;;;;4406225;32;20495;-76
2023/04/14 00:53:53;;;;;;;1.02;0.85;;;8.50;99.90;;;;;;4403967;32;20075;-76
2023/04/14 00:56:19;;;;;;;0.95;0.70;;;8.40;99.90;;;;;;4403620;32;20288;-76
2023/04/14 00:58:45;;;;;;;3.72;2.10;;;8.40;99.90;;;;;;4404889;32;20124;-76
2023/04/14 01:01:11;;;;;;;6.82;2.65;;;8.40;99.90;;;;;;4403654;32;20085;-76
2023/04/14 01:03:37;;;;;;;0.82;0.82;;;8.40;99.90;;;;;;4404902;32;20062;-76
2023/04/14 01:06:03;;;;;;;0.37;0.37;;;8.40;99.90;;;;;;4403113;32;20066;-77
2023/04/14 01:08:28;;;;;;;1.42;0.68;;;8.40;99.90;;;;;;4404936;32;20077;-77
2023/04/14 01:11:20;;;;;;;0.47;0.47;;;8.40;99.90;;;;;;4404011;32;20106;-76
2023/04/14 01:14:00;;;;;;;2.20;1.20;;;8.40;99.90;;;;;;4405180;32;20070;-76
2023/04/14 01:16:30;;;;;;;1.93;1.07;;;8.40;99.90;;;;;;4405969;32;20128;-77
2023/04/14 01:19:15;;;;;;;0.30;0.30;;;8.50;99.90;;;;;;4411369;32;20065;-76
2023/04/14 01:21:44;;;;;;;0.73;0.73;;;8.50;99.90;;;;;;4393082;32;20530;-76
2023/04/14 01:24:50;;;;;;;0.57;0.57;;;8.60;99.90;;;;;;4409237;32;20057;-75
2023/04/14 01:27:42;;;;;;;0.62;0.62;;;8.60;99.90;;;;;;4394721;32;20462;-75
2023/04/14 01:30:39;;;;;;;0.50;0.50;;;8.60;99.90;;;;;;4398048;32;20102;-75
2023/04/14 01:33:08;;;;;;;1.55;0.50;;;8.60;99.90;;;;;;4394028;32;20573;-74
2023/04/14 01:35:38;;;;;;;0.50;0.50;;;8.60;99.90;;;;;;4409155;32;20088;-75
2023/04/14 01:38:09;;;;;;;1.10;0.70;;;8.50;99.90;;;;;;4405849;32;20073;-75
2023/04/14 01:40:37;;;;;;;3.00;0.60;;;8.50;99.90;;;;;;4406281;32;20180;-74
2023/04/14 01:43:09;;;;;;;0.50;0.50;;;8.50;99.90;;;;;;4406694;32;20070;-75
2023/04/14 01:45:45;;;;;;;0.35;0.35;;;8.50;99.90;;;;;;4408516;32;20086;-75
2023/04/14 01:48:11;;;;;;;0.43;0.43;;;8.60;99.90;;;;;;4411354;32;20073;-75
2023/04/14 01:50:40;;;;;;;2.40;1.05;;;8.60;99.90;;;;;;4405922;32;20110;-75
2023/04/14 01:53:07;;;;;;;0.55;0.55;;;8.60;99.90;;;;;;4408909;32;20201;-75
2023/04/14 01:55:36;;;;;;;0.40;0.40;;;8.60;99.90;;;;;;4406347;32;20087;-75
2023/04/14 01:58:04;;;;;;;0.50;0.50;;;8.60;99.90;;;;;;4413627;32;20102;-75
2023/04/14 02:00:30;;;;;;;0.30;0.30;;;8.50;99.90;;;;;;4417366;32;20089;-76
2023/04/14 02:02:56;;;;;;;0.40;0.40;;;8.50;99.90;;;;;;4407451;32;20203;-75
2023/04/14 02:05:23;;;;;;;0.40;0.40;;;8.50;99.90;;;;;;4409256;32;20078;-75
2023/04/14 02:07:51;;;;;;;0.37;0.37;;;8.50;99.90;;;;;;4405913;32;20446;-75
2023/04/14 02:10:19;;;;;;;0.50;0.50;;;8.50;99.90;;;;;;4405142;32;20082;-75
2023/04/14 02:12:47;;;;;;;0.50;0.50;;;8.60;99.90;;;;;;4409084;32;20462;-75
2023/04/14 02:15:16;;;;;;;3.35;0.57;;;8.60;99.90;;;;;;4404842;32;20094;-74
2023/04/14 02:17:42;;;;;;;0.30;0.30;;;8.70;99.90;;;;;;4405926;32;20061;-75
2023/04/14 02:20:09;;;;;;;1.45;0.73;;;8.80;99.90;;;;;;4407048;32;20505;-75
2023/04/14 02:22:35;;;;;;;0.73;0.68;;;8.80;99.90;;;;;;4406533;32;20065;-75
2023/04/14 02:25:01;;;;;;;0.30;0.30;;;8.80;99.90;;;;;;4409851;32;20078;-75
2023/04/14 02:27:34;;;;;;;0.30;0.30;;;8.80;99.90;;;;;;4406291;32;20077;-75
2023/04/14 02:30:06;;;;;;;1.48;0.98;;;8.80;99.90;;;;;;4409405;32;20069;-75
2023/04/14 02:32:35;;;;;;;0.73;0.68;;;8.90;99.90;;;;;;4401244;32;20138;-75
2023/04/14 02:35:09;;;;;;;0.40;0.40;;;8.90;99.90;;;;;;4406221;32;20070;-75
2023/04/14 02:37:40;;;;;;;0.60;0.60;;;9.00;99.90;;;;;;4404693;32;20120;-75
2023/04/14 02:40:14;;;;;;;1.42;1.02;;;8.90;99.90;;;;;;4406548;32;20128;-75
2023/04/14 02:42:43;;;;;;;4.45;1.02;;;8.90;99.90;;;;;;4404833;32;20070;-75
2023/04/14 02:45:15;;;;;;;0.60;0.60;;;8.90;99.90;;;;;;4407926;32;20403;-75
2023/04/14 02:47:46;;;;;;;0.47;0.47;;;9.00;99.90;;;;;;4406952;32;20122;-75
2023/04/14 02:50:15;;;;;;;0.65;0.52;;;9.00;99.90;;;;;;4406849;32;20094;-75
2023/04/14 02:52:42;;;;;;;0.57;0.57;;;9.00;99.90;;;;;;4407795;32;20078;-75
2023/04/14 02:55:10;;;;;;;0.45;0.45;;;8.90;99.90;;;;;;4403471;32;20057;-75
2023/04/14 02:57:37;;;;;;;1.17;0.88;;;8.90;99.90;;;;;;4404899;32;20074;-75
2023/04/14 03:00:04;;;;;;;0.70;0.70;;;8.90;99.90;;;;;;4403712;32;20077;-77
2023/04/14 03:02:31;;;;;;;0.57;0.57;;;8.80;99.90;;;;;;4403206;32;20110;-76
2023/04/14 03:04:58;;;;;;;1.00;0.70;;;8.90;99.90;;;;;;4403667;32;20097;-77
2023/04/14 03:07:26;;;;;;;0.40;0.40;;;8.90;99.90;;;;;;4401843;32;20079;-77
2023/04/14 03:09:52;;;;;;;0.47;0.47;;;8.90;99.90;;;;;;4398405;32;20097;-76
2023/04/14 03:12:18;;;;;;;0.60;0.60;;;8.90;99.90;;;;;;4402372;32;20061;-76
2023/04/14 03:14:44;;;;;;;0.82;0.55;;;9.00;99.90;;;;;;4404158;32;20410;-77
2023/04/14 03:17:10;;;;;;;2.95;0.50;;;9.00;99.90;;;;;;4403585;32;20125;-77
2023/04/14 03:19:39;;;;;;;2.92;0.75;;;9.00;99.90;;;;;;4401192;32;21281;-76
2023/04/14 03:22:06;;;;;;;0.45;0.45;;;9.00;99.90;;;;;;4403194;32;20530;-76
2023/04/14 03:24:34;;;;;;;1.02;0.60;;;9.00;99.90;;;;;;4400570;32;20517;-77
2023/04/14 03:27:04;;;;;;;0.40;0.40;;;9.00;99.90;;;;;;4399243;32;20085;-77
2023/04/14 03:29:35;;;;;;;0.82;0.52;;;9.00;99.90;;;;;;4401251;32;20467;-76
2023/04/14 03:32:05;;;;;;;1.62;0.70;;;8.90;99.90;;;;;;4404393;32;20069;-77
2023/04/14 03:34:32;;;;;;;0.55;0.55;;;8.90;99.90;;;;;;4404565;32;20078;-77
2023/04/14 03:36:58;;;;;;;0.52;0.52;;;8.90;99.90;;;;;;4400376;32;20111;-77
2023/04/14 03:39:26;;;;;;;1.05;0.57;;;9.00;99.90;;;;;;4400969;32;20643;-76
2023/04/14 03:41:54;;;;;;;4.68;1.33;;;9.00;99.90;;;;;;4403910;32;20078;-77
2023/04/14 03:44:21;;;;;;;0.52;0.52;;;9.00;99.90;;;;;;4404185;32;20074;-77
2023/04/14 03:46:48;;;;;;;1.20;0.98;;;9.00;99.90;;;;;;4402749;32;20078;-77
2023/04/14 03:49:15;;;;;;;0.30;0.30;;;9.00;99.90;;;;;;4398655;32;20074;-77
2023/04/14 03:51:42;;;;;;;0.57;0.57;;;9.10;99.90;;;;;;4401877;32;20077;-77
2023/04/14 03:54:09;;;;;;;2.30;0.68;;;9.00;99.90;;;;;;4401675;32;20526;-76
2023/04/14 03:56:37;;;;;;;1.42;1.30;;;9.00;99.90;;;;;;4399344;32;20077;-78
2023/04/14 03:59:04;;;;;;;1.55;0.80;;;8.90;99.90;;;;;;4401434;32;20081;-77
2023/04/14 04:01:32;;;;;;;0.70;0.70;;;9.00;99.90;;;;;;4402137;32;20120;-77
2023/04/14 04:04:00;;;;;;;0.35;0.35;;;8.90;99.90;;;;;;4405649;32;20517;-77
2023/04/14 04:06:27;;;;;;;0.50;0.50;;;9.00;99.90;;;;;;4404247;32;20086;-77
2023/04/14 04:08:54;;;;;;;0.90;0.47;;;9.10;99.90;;;;;;4400830;32;20066;-77
2023/04/14 04:11:21;;;;;;;1.65;0.68;;;9.10;99.90;;;;;;4401698;32;20547;-77
2023/04/14 04:13:48;;;;;;;0.40;0.40;;;9.10;99.90;;;;;;4401486;32;20387;-78
2023/04/14 04:16:14;;;;;;;1.20;0.90;;;9.10;99.90;;;;;;4400702;32;20176;-78
2023/04/14 04:18:45;;;;;;;0.40;0.40;;;9.10;99.90;;;;;;4401599;32;20553;-77
2023/04/14 04:21:13;;;;;;;0.28;0.28;;;9.10;99.90;;;;;;4402936;32;20147;-77
2023/04/14 04:23:42;;;;;;;1.65;0.90;;;9.10;99.90;;;;;;4401643;32;20534;-76
2023/04/14 04:26:08;;;;;;;0.65;0.65;;;9.00;99.90;;;;;;4401713;32;20526;-76
2023/04/14 04:28:35;;;;;;;0.50;0.50;;;8.90;99.90;;;;;;4402352;32;20130;-77
2023/04/14 04:31:03;;;;;;;5.68;1.02;;;8.90;99.90;;;;;;4399407;32;20085;-77
2023/04/14 04:33:29;;;;;;;0.70;0.70;;;8.90;99.90;;;;;;4399510;32;20478;-76
2023/04/14 04:35:55;;;;;;;0.40;0.40;;;8.90;99.90;;;;;;4401574;32;20152;-76
2023/04/14 04:38:21;;;;;;;12.48;1.02;;;8.90;99.90;;;;;;4402289;32;20065;-77
2023/04/14 04:40:46;;;;;;;0.50;0.50;;;8.90;99.90;;;;;;4402958;32;20061;-77
2023/04/14 04:43:12;;;;;;;0.50;0.50;;;9.00;99.90;;;;;;4400597;32;20070;-77
2023/04/14 04:45:59;;;;;;;0.52;0.52;;;9.00;99.90;;;;;;4403641;32;20097;-76
2023/04/14 04:48:24;;;;;;;0.68;0.68;;;8.80;99.90;;;;;;4390934;32;20141;-77
2023/04/14 04:50:50;;;;;;;0.50;0.50;;;8.70;99.90;;;;;;4407108;32;20073;-76
2023/04/14 04:53:15;;;;;;;0.40;0.40;;;8.70;99.90;;;;;;4399591;32;20074;-76
2023/04/14 04:55:41;;;;;;;0.80;0.80;;;8.70;99.90;;;;;;4404419;32;20065;-76
2023/04/14 04:58:08;;;;;;;0.47;0.47;;;8.70;99.90;;;;;;4402555;32;20106;-76
2023/04/14 05:00:33;;;;;;;0.30;0.30;;;8.70;99.90;;;;;;4401792;32;20094;-76
2023/04/14 05:02:59;;;;;;;0.50;0.50;;;8.80;99.90;;;;;;4401717;32;20066;-76
2023/04/14 05:05:24;;;;;;;0.35;0.35;;;8.90;99.90;;;;;;4401570;32;20061;-77
2023/04/14 05:07:50;;;;;;;6.12;1.25;;;8.90;99.90;;;;;;4399659;32;20069;-76
2023/04/14 05:10:16;;;;;;;0.65;0.65;;;8.90;99.90;;;;;;4402797;32;20098;-76
2023/04/14 05:12:41;;;;;;;0.40;0.40;;;8.90;99.90;;;;;;4401066;32;20170;-76
2023/04/14 05:15:08;;;;;;;0.40;0.40;;;8.90;99.90;;;;;;4400087;32;20161;-76
2023/04/14 05:17:34;;;;;;;1.05;0.82;;;9.00;99.90;;;;;;4402653;32;20804;-75
2023/04/14 05:20:01;;;;;;;0.68;0.68;;;9.00;99.90;;;;;;4400774;32;20125;-76
2023/04/14 05:22:27;;;;;;;0.68;0.65;;;9.00;99.90;;;;;;4401351;32;20094;-76
2023/04/14 05:24:52;;;;;;;0.73;0.60;;;8.90;99.90;;;;;;4401057;32;20093;-76
2023/04/14 05:27:17;;;;;;;0.57;0.57;;;8.90;99.90;;;;;;4401746;32;20081;-76
2023/04/14 05:29:43;;;;;;;0.40;0.40;;;8.90;99.90;;;;;;4399259;32;20093;-76
2023/04/14 05:32:11;;;;;;;0.32;0.32;;;8.90;99.90;;;;;;4399505;32;20082;-76
2023/04/14 05:34:37;;;;;;;0.40;0.40;;;8.80;99.90;;;;;;4399447;32;20093;-78
2023/04/14 05:37:02;;;;;;;0.30;0.30;;;8.90;99.90;;;;;;4400587;32;20454;-77
2023/04/14 05:39:28;;;;;;;0.73;0.73;;;9.00;99.90;;;;;;4399058;32;20089;-77
2023/04/14 05:41:53;;;;;;;6.32;1.05;;;9.00;99.90;;;;;;4400950;32;20077;-78
2023/04/14 05:44:19;;;;;;;0.40;0.40;;;9.10;99.90;;;;;;4400852;32;20135;-77
2023/04/14 05:46:45;;;;;;;1.15;0.80;;;9.20;99.90;;;;;;4400701;32;20497;-76
2023/04/14 05:49:10;;;;;;;0.85;0.82;;;9.20;99.90;;;;;;4401486;32;20067;-76
2023/04/14 05:51:36;;;;;;;0.40;0.40;;;9.20;99.90;;;;;;4401187;32;20110;-77
2023/04/14 05:54:01;;;;;;;0.62;0.60;;;9.20;99.90;;;;;;4401961;32;20081;-77
2023/04/14 05:56:27;;;;;;;0.22;0.22;;;9.20;99.90;;;;;;4400570;32;20069;-77
2023/04/14 05:58:54;;;;;;;0.40;0.40;;;9.20;99.90;;;;;;4400299;32;20091;-76
2023/04/14 06:01:20;;;;;;;1.45;0.77;;;9.20;99.90;;;;;;4403518;32;20090;-77
2023/04/14 06:03:45;;;;;;;0.35;0.35;;;9.30;99.90;;;;;;4402995;32;20074;-77
2023/04/14 06:06:11;;;;;;;1.08;0.70;;;9.40;99.90;;;;;;4402184;32;20594;-77
2023/04/14 06:08:36;;;;;;;0.75;0.75;;;9.30;99.90;;;;;;4403642;32;20094;-76
2023/04/14 06:11:02;;;;;;;0.47;0.47;;;9.30;99.90;;;;;;4403109;32;20145;-77
2023/04/14 06:13:28;;;;;;;0.40;0.40;;;9.40;99.90;;;;;;4403956;32;20062;-77
2023/04/14 06:15:55;;;;;;;3.60;0.73;;;9.40;99.90;;;;;;4404835;32;20533;-76
2023/04/14 06:18:21;;;;;;;2.53;0.50;;;9.40;99.90;;;;;;4405515;32;20091;-76
2023/04/14 06:20:47;;;;;;;0.40;0.40;;;9.50;99.90;;;;;;4403276;32;20406;-76
2023/04/14 06:23:12;;;;;;;1.85;0.65;;;9.50;99.90;;;;;;4404639;32;20156;-76
2023/04/14 06:25:38;;;;;;;0.90;0.85;;;9.50;99.90;;;;;;4404370;32;20105;-76
2023/04/14 06:28:03;;;;;;;0.50;0.50;;;9.50;99.90;;;;;;4405035;32;20078;-76
2023/04/14 06:30:31;;;;;;;4.20;0.77;;;9.50;99.90;;;;;;4402156;32;20137;-77
2023/04/14 06:32:57;;;;;;;0.68;0.68;;;9.60;99.90;;;;;;4399894;32;20093;-77
2023/04/14 06:35:22;;;;;;;0.60;0.60;;;9.60;99.90;;;;;;4404333;32;20061;-76
2023/04/14 06:37:48;;;;;;;1.25;0.95;;;9.50;99.90;;;;;;4402777;32;20506;-76
2023/04/14 06:40:14;;;;;;;1.50;0.93;;;9.50;99.90;;;;;;4402239;32;20093;-76
2023/04/14 06:42:39;;;;;;;0.50;0.50;;;9.50;99.90;;;;;;4402356;32;20077;-77
2023/04/14 06:45:05;;;;;;;3.25;1.35;;;9.60;99.90;;;;;;4402937;32;20073;-77
2023/04/14 06:47:31;;;;;;;0.52;0.50;;;9.60;99.90;;;;;;4404248;32;20078;-76
2023/04/14 06:49:57;;;;;;;0.50;0.50;;;9.50;99.90;;;;;;4403075;32;20102;-76
2023/04/14 06:52:23;;;;;;;0.30;0.30;;;9.60;99.90;;;;;;4402695;32;20120;-76
2023/04/14 06:54:48;;;;;;;0.32;0.32;;;9.60;99.90;;;;;;4402490;32;20073;-77
2023/04/14 06:57:14;;;;;;;1.17;0.93;;;9.60;99.90;;;;;;4401500;32;20094;-76
2023/04/14 06:59:40;;;;;;;0.70;0.57;;;9.60;99.90;;;;;;4401863;32;20070;-76
2023/04/14 07:02:06;;;;;;;0.45;0.45;;;9.70;99.90;;;;;;4401639;32;20074;-76
2023/04/14 07:04:31;;;;;;;2.67;0.68;;;9.70;99.90;;;;;;4403042;32;20574;-76
2023/04/14 07:07:00;;;;;;;6.57;2.05;;;9.80;99.90;;;;;;4404168;32;20148;-75
2023/04/14 07:09:27;;;;;;;1.20;0.70;;;9.80;99.90;;;;;;4401074;32;20522;-78
2023/04/14 07:11:52;;;;;;;0.65;0.50;;;9.80;99.90;;;;;;4400265;32;20061;-77
2023/04/14 07:14:18;;;;;;;0.60;0.60;;;9.80;99.90;;;;;;4401286;32;20089;-77
2023/04/14 07:16:43;;;;;;;0.50;0.50;;;9.90;99.90;;;;;;4402055;32;20476;-77
2023/04/14 07:19:09;;;;;;;1.25;0.77;;;9.90;99.90;;;;;;4404284;32;20086;-75
2023/04/14 07:21:36;;;;;;;0.30;0.30;;;9.90;99.90;;;;;;4403499;32;20081;-76
2023/04/14 07:24:03;;;;;;;0.57;0.57;;;9.90;99.90;;;;;;4402324;32;20626;-77
2023/04/14 07:26:28;;;;;;;0.55;0.55;;;10.00;99.90;;;;;;4401324;32;20140;-77
2023/04/14 07:28:54;;;;;;;0.80;0.80;;;10.00;99.90;;;;;;4407472;32;20086;-77
2023/04/14 07:31:20;;;;;;;0.68;0.68;;;10.00;99.90;;;;;;4403852;32;20607;-76
2023/04/14 07:33:45;;;;;;;0.82;0.47;;;10.10;99.90;;;;;;4403079;32;20136;-77
2023/04/14 07:36:11;;;;;;;0.98;0.90;;;10.20;99.90;;;;;;4400755;32;20074;-77
2023/04/14 07:38:37;;;;;;;0.85;0.85;;;10.20;99.90;;;;;;4399729;32;20074;-76
2023/04/14 07:41:04;;;;;;;0.40;0.40;;;10.20;99.90;;;;;;4400872;32;20066;-76
2023/04/14 07:43:38;;;;;;;0.80;0.80;;;10.30;99.90;;;;;;4400357;32;20065;-76
2023/04/14 07:46:06;;;;;;;0.77;0.70;;;10.30;99.90;;;;;;4401396;32;20078;-76
2023/04/14 07:48:33;;;;;;;0.30;0.30;;;10.40;99.90;;;;;;4399976;32;20074;-76
2023/04/14 07:50:59;;;;;;;1.05;0.95;;;10.40;99.90;;;;;;4404053;32;20096;-75
2023/04/14 07:53:25;;;;;;;0.65;0.60;;;10.40;99.90;;;;;;4404583;32;20599;-76
2023/04/14 07:55:50;;;;;;;1.10;0.60;;;10.30;99.90;;;;;;4402829;32;20079;-76
2023/04/14 07:58:16;;;;;;;0.40;0.40;;;10.40;99.90;;;;;;4403319;32;20160;-77
2023/04/14 08:00:42;;;;;;;0.50;0.50;;;10.40;99.90;;;;;;4402625;32;20143;-78
2023/04/14 08:03:08;;;;;;;1.17;0.88;;;10.30;99.90;;;;;;4404251;32;20510;-77
2023/04/14 08:05:34;;;;;;;0.40;0.40;;;10.30;99.90;;;;;;4402739;32;20069;-76
2023/04/14 08:07:59;;;;;;;2.08;1.37;;;10.20;99.90;;;;;;4399862;32;20423;-78
2023/04/14 08:10:25;;;;;;;0.37;0.37;;;10.10;99.90;;;;;;4400453;32;20069;-77
2023/04/14 08:12:51;;;;;;;0.43;0.43;;;10.10;99.90;;;;;;4400121;32;20148;-77
2023/04/14 08:15:17;;;;;;;0.57;0.55;;;10.10;99.90;;;;;;4401080;32;20073;-78
2023/04/14 08:17:43;;;;;;;0.50;0.50;;;10.10;99.90;;;;;;4403027;32;20086;-77
2023/04/14 08:20:09;;;;;;;0.45;0.45;;;10.20;99.90;;;;;;4402695;32;20590;-77
2023/04/14 08:22:34;;;;;;;0.40;0.40;;;10.20;99.90;;;;;;4401777;32;20081;-77
2023/04/14 08:25:00;;;;;;;2.40;1.17;;;10.10;99.90;;;;;;4400918;32;20482;-77
2023/04/14 08:27:25;;;;;;;0.85;0.75;;;10.20;99.90;;;;;;4400650;32;20070;-77
2023/04/14 08:29:51;;;;;;;0.40;0.40;;;10.20;99.90;;;;;;4401378;32;20128;-77
2023/04/14 08:32:16;;;;;;;0.30;0.30;;;10.20;99.90;;;;;;4404270;32;20105;-76
2023/04/14 08:34:43;;;;;;;1.15;1.05;;;10.10;99.90;;;;;;4402750;32;20073;-78
2023/04/14 08:37:08;;;;;;;0.50;0.50;;;10.00;99.90;;;;;;4404373;32;20066;-78
2023/04/14 08:39:34;;;;;;;0.50;0.50;;;10.10;99.90;;;;;;4404182;32;20098;-77
2023/04/14 08:42:00;;;;;;;0.35;0.32;;;10.10;99.90;;;;;;4399196;32;20148;-77
2023/04/14 08:44:26;;;;;;;0.70;0.47;;;10.00;99.90;;;;;;4401110;32;20073;-77
2023/04/14 08:46:52;;;;;;;0.47;0.47;;;9.90;99.90;;;;;;4398193;32;20121;-77
2023/04/14 08:49:29;;;;;;;0.32;0.32;;;10.00;99.90;;;;;;4401615;32;20190;-77
2023/04/14 08:51:57;;;;;;;0.50;0.50;;;10.10;99.90;;;;;;4403750;32;20069;-77
2023/04/14 08:54:23;;;;;;;0.40;0.40;;;10.20;99.90;;;;;;4401014;32;20077;-78
2023/04/14 08:56:49;;;;;;;0.40;0.40;;;10.10;99.90;;;;;;4400939;32;20557;-77
2023/04/14 08:59:14;;;;;;;0.50;0.50;;;10.10;99.90;;;;;;4399760;32;20173;-77
2023/04/14 09:01:40;;;;;;;0.32;0.32;;;10.30;99.90;;;;;;4401987;32;20646;-77
2023/04/14 09:04:06;;;;;;;0.30;0.30;;;10.40;99.90;;;;;;4402496;32;20085;-77
2023/04/14 09:06:33;;;;;;;0.40;0.40;;;10.20;99.90;;;;;;4402687;32;20167;-77
2023/04/14 09:09:02;;;;;;;0.43;0.43;;;10.20;99.90;;;;;;4400649;32;20486;-76
2023/04/14 09:11:29;;;;;;;0.52;0.52;;;10.20;99.90;;;;;;4400068;32;20082;-77
2023/04/14 09:13:57;;;;;;;0.35;0.35;;;10.20;99.90;;;;;;4401584;32;20128;-76
2023/04/14 09:16:23;;;;;;;3.17;1.10;;;10.30;99.90;;;;;;4401247;32;20078;-77
2023/04/14 09:18:50;;;;;;;0.70;0.70;;;10.40;99.90;;;;;;4403483;32;20082;-77
2023/04/14 09:21:16;;;;;;;0.43;0.43;;;10.30;99.90;;;;;;4399878;32;20073;-77
2023/04/14 09:23:42;;;;;;;0.30;0.30;;;10.20;99.90;;;;;;4398825;32;20057;-77
2023/04/14 09:26:09;;;;;;;0.73;0.68;;;10.10;99.90;;;;;;4401525;32;20121;-77
2023/04/14 09:28:35;;;;;;;0.25;0.25;;;10.00;99.90;;;;;;4401009;32;20069;-77
2023/04/14 09:31:01;;;;;;;0.57;0.57;;;10.00;99.90;;;;;;4400511;32;20145;-77
2023/04/14 09:33:27;;;;;;;0.30;0.30;;;10.00;99.90;;;;;;4398894;32;20070;-77
2023/04/14 09:35:53;;;;;;;0.37;0.37;;;10.00;99.90;;;;;;4403187;32;20078;-77
2023/04/14 09:38:39;;;;;;;0.30;0.30;;;10.00;99.90;;;;;;4407364;32;20117;-77
2023/04/14 09:41:05;;;;;;;0.30;0.30;;;9.90;99.90;;;;;;4390952;32;20066;-77
2023/04/14 09:43:31;;;;;;;0.40;0.40;;;9.80;99.90;;;;;;4403518;32;20061;-77
2023/04/14 09:46:04;;;;;;;0.37;0.35;;;9.80;99.90;;;;;;4406425;32;20570;-77
2023/04/14 09:48:29;;;;;;;0.50;0.50;;;9.90;99.90;;;;;;4402083;32;20085;-76
2023/04/14 09:51:00;;;;;;;0.40;0.40;;;9.90;99.90;;;;;;4404513;32;20395;-77
2023/04/14 09:53:28;;;;;;;0.30;0.30;;;9.90;99.90;;;;;;4403712;32;20422;-77
2023/04/14 09:55:54;;;;;;;0.43;0.43;;;9.90;99.90;;;;;;4401759;32;20073;-76
2023/04/14 09:58:21;;;;;;;0.57;0.47;;;9.90;99.90;;;;;;4404798;32;20098;-77
2023/04/14 10:00:48;;;;;;;0.30;0.30;;;9.90;99.90;;;;;;4402233;32;20069;-77
2023/04/14 10:03:14;;;;;;;0.30;0.30;;;10.00;99.90;;;;;;4405169;32;20180;-77
2023/04/14 10:05:45;;;;;;;0.60;0.60;;;10.00;99.90;;;;;;4404910;32;20073;-77
2023/04/14 10:08:10;;;;;;;0.50;0.50;;;10.10;99.90;;;;;;4401787;32;20082;-77
2023/04/14 10:10:36;;;;;;;0.20;0.20;;;10.00;99.90;;;;;;4391848;32;20097;-76
2023/04/14 10:13:02;;;;;;;2.17;0.47;;;10.10;99.90;;;;;;4396913;32;20097;-77
2023/04/14 10:15:27;;;;;;;0.30;0.30;;;10.10;99.90;;;;;;4402711;32;20521;-77
2023/04/14 10:17:53;;;;;;;2.33;1.37;;;10.20;99.90;;;;;;4403079;32;20083;-77
2023/04/14 10:20:19;;;;;;;0.30;0.30;;;10.30;99.90;;;;;;4404684;32;20057;-77
2023/04/14 10:22:46;;;;;;;0.40;0.40;;;10.20;99.90;;;;;;4402220;32;20077;-77
2023/04/14 10:25:12;;;;;;;0.40;0.40;;;10.30;99.90;;;;;;4402549;32;20081;-76
2023/04/14 10:27:38;;;;;;;1.35;0.60;;;10.20;99.90;;;;;;4404608;32;20102;-77
2023/04/14 10:30:05;;;;;;;0.47;0.47;;;10.20;99.90;;;;;;4403948;32;20070;-77
2023/04/14 10:32:34;;;;;;;0.47;0.47;;;10.10;99.90;;;;;;4405665;32;20085;-76
2023/04/14 10:35:08;;;;;;;0.45;0.45;;;10.20;99.90;;;;;;4405481;32;20200;-76
2023/04/14 10:37:34;;;;;;;0.40;0.40;;;10.20;99.90;;;;;;4402030;32;20086;-76
2023/04/14 10:40:04;;;;;;;0.30;0.30;;;10.30;99.90;;;;;;4399375;32;20736;-77
2023/04/14 10:42:50;;;;;;;0.55;0.55;;;10.30;99.90;;;;;;4402707;32;20085;-76
2023/04/14 10:45:16;;;;;;;0.70;0.55;;;10.30;99.90;;;;;;4390912;32;20077;-76
2023/04/14 10:47:43;;;;;;;0.40;0.40;;;10.30;99.90;;;;;;4401337;32;20090;-77
2023/04/14 10:50:12;;;;;;;0.35;0.35;;;10.10;99.90;;;;;;4400156;32;20120;-76
2023/04/14 10:52:47;;;;;;;0.30;0.30;;;10.20;99.90;;;;;;4400607;32;20078;-76
2023/04/14 10:55:12;;;;;;;0.30;0.30;;;10.20;99.90;;;;;;4402597;32;20131;-76
2023/04/14 10:57:41;;;;;;;0.43;0.35;;;10.20;99.90;;;;;;4401531;32;20086;-77
2023/04/14 11:00:24;;;;;;;1.65;0.90;;;10.30;99.90;;;;;;4406633;32;20127;-77
2023/04/14 11:03:17;;;;;;;0.22;0.22;;;10.20;99.90;;;;;;4387530;32;20097;-75
2023/04/14 11:05:48;;;;;;;0.37;0.37;;;10.10;99.90;;;;;;4390652;32;20102;-77
2023/04/14 11:08:15;;;;;;;1.75;0.50;;;10.10;99.90;;;;;;4402636;32;20062;-78
2023/04/14 11:10:47;;;;;;;0.40;0.40;;;10.10;99.90;;;;;;4400043;32;20187;-77
2023/04/14 11:13:13;;;;;;;0.35;0.35;;;10.00;99.90;;;;;;4405715;32;20065;-77
2023/04/14 11:16:00;;;;;;;0.43;0.43;;;10.00;99.90;;;;;;4400369;32;20123;-77
2023/04/14 11:18:32;;;;;;;2.53;1.52;;;10.10;99.90;;;;;;4392359;32;20113;-77
2023/04/14 11:21:03;;;;;;;0.40;0.40;;;10.00;99.90;;;;;;4377499;32;20106;-77
2023/04/14 11:23:29;;;;;;;0.32;0.32;;;9.90;99.90;;;;;;4403181;32;20082;-76
2023/04/14 11:25:56;;;;;;;0.30;0.30;;;9.90;99.90;;;;;;4399880;32;20082;-77
2023/04/14 11:28:31;;;;;;;3.30;0.85;;;9.70;99.90;;;;;;4402116;32;20093;-76
2023/04/14 11:30:58;;;;;;;0.47;0.47;;;9.80;99.90;;;;;;4400896;32;20440;-77
2023/04/14 11:33:31;;;;;;;0.32;0.32;;;9.70;99.90;;;;;;4402540;32;20565;-77
2023/04/14 11:35:57;;;;;;;0.43;0.40;;;9.80;99.90;;;;;;4402534;32;20073;-77
2023/04/14 11:38:24;;;;;;;0.35;0.35;;;9.80;99.90;;;;;;4403220;32;20061;-77
2023/04/14 11:40:50;;;;;;;0.40;0.40;;;9.70;99.90;;;;;;4401196;32;20099;-78
2023/04/14 11:43:16;;;;;;;0.45;0.45;;;9.70;99.90;;;;;;4401752;32;91792;-77
2023/04/14 11:45:43;;;;;;;1.02;0.93;;;9.70;99.90;;;;;;4401393;32;20081;-77
2023/04/14 11:48:11;;;;;;;0.30;0.30;;;9.80;99.90;;;;;;4403595;32;20086;-76
2023/04/14 11:50:37;;;;;;;0.32;0.32;;;9.70;99.90;;;;;;4404470;32;20089;-76
2023/04/14 11:53:12;;;;;;;5.95;0.60;;;9.70;99.90;;;;;;4402432;32;20082;-77
2023/04/14 11:55:47;;;;;;;0.50;0.50;;;9.60;99.90;;;;;;4400702;32;20116;-77
2023/04/14 11:58:18;;;;;;;0.40;0.40;;;9.50;99.90;;;;;;4399527;32;20074;-76
2023/04/14 12:00:47;;;;;;;0.45;0.45;;;9.50;99.90;;;;;;4402542;32;20592;-77
2023/04/14 12:03:13;;;;;;;0.47;0.47;;;9.50;99.90;;;;;;4403879;32;20535;-77
2023/04/14 12:05:38;;;;;;;0.37;0.37;;;9.50;99.90;;;;;;4398761;32;20066;-76
2023/04/14 12:08:07;;;;;;;0.47;0.45;;;9.50;99.90;;;;;;4402065;32;20123;-77
2023/04/14 12:10:33;;;;;;;0.57;0.47;;;9.50;99.90;;;;;;4399828;32;20141;-76
2023/04/14 12:13:05;;;;;;;0.60;0.60;;;9.50;99.90;;;;;;4400497;32;20070;-76
2023/04/14 12:15:33;;;;;;;0.30;0.30;;;9.50;99.90;;;;;;4400760;32;20588;-77
2023/04/14 12:17:59;;;;;;;8.32;0.60;;;9.50;99.90;;;;;;4403615;32;20074;-76
2023/04/14 12:20:26;;;;;;;0.52;0.52;;;9.50;99.90;;;;;;4402924;32;20070;-77
2023/04/14 12:22:59;;;;;;;0.50;0.50;;;9.50;99.90;;;;;;4403023;32;20465;-77
2023/04/14 12:25:25;;;;;;;0.65;0.65;;;9.50;99.90;;;;;;4401878;32;20106;-77
2023/04/14 12:27:51;;;;;;;0.60;0.60;;;9.60;99.90;;;;;;4402470;32;20077;-77
2023/04/14 12:30:20;;;;;;;0.35;0.35;;;9.60;99.90;;;;;;4403792;32;20185;-77
2023/04/14 12:32:45;;;;;;;0.30;0.30;;;9.60;99.90;;;;;;4400793;32;20085;-77
2023/04/14 12:35:11;;;;;;;1.33;0.50;;;9.70;99.90;;;;;;4403798;32;20097;-77
2023/04/14 12:37:37;;;;;;;0.40;0.40;;;9.50;99.90;;;;;;4401199;32;20152;-77
2023/04/14 12:40:05;;;;;;;0.37;0.37;;;9.50;99.90;;;;;;4398711;32;20083;-76
2023/04/14 12:42:48;;;;;;;0.30;0.30;;;9.50;99.90;;;;;;4400592;32;20074;-76
2023/04/14 12:45:15;;;;;;;0.30;0.30;;;9.50;99.90;;;;;;4398991;32;20097;-77
2023/04/14 12:47:49;;;;;;;1.00;0.50;;;9.60;99.90;;;;;;4397962;32;20066;-77
2023/04/14 12:50:32;;;;;;;0.43;0.43;;;9.60;99.90;;;;;;4399857;32;20538;-77
2023/04/14 12:53:00;;;;;;;0.30;0.30;;;9.60;99.90;;;;;;4400179;32;20086;-77
2023/04/14 12:55:28;;;;;;;1.42;0.90;;;9.50;99.90;;;;;;4400256;32;20582;-76
2023/04/14 12:57:54;;;;;;;0.43;0.43;;;9.50;99.90;;;;;;4401869;32;20089;-77